Time;durP1;ratioP1;P1;durP2;ratioP2;P2;SDS_P1;SDS_P2;PMS_P1;PMS_P2;Temp;Humidity;BMP_temperature;BMP_pressure;BME280_temperature;BME280_humidity;BME280_pressure;Samples;Min_cycle;Max_cycle;Signal;HPM_P1;HPM_P2
2021/01/13 00:07:01;;;;;;;;;;;;;;;;;;;;;
2021/01/13 00:09:44;;;;;;;16.13;1.58;;;;;;;;;;6211925;23;20050;-86
2021/01/13 00:15:48;;;;;;;15.07;1.40;;;;;;;;;;6132796;23;20056;-87
2021/01/13 00:18:15;;;;;;;7.45;1.40;;;;;;;;;;6134084;23;20021;-87
2021/01/13 00:20:41;;;;;;;5.63;1.50;;;;;;;;;;6112078;23;20036;-87
2021/01/13 00:23:13;;;;;;;7.03;1.83;;;;;;;;;;6135071;23;20080;-87
2021/01/13 00:25:39;;;;;;;6.45;0.90;;;;;;;;;;6134842;23;20030;-87
2021/01/13 00:28:06;;;;;;;14.57;1.38;;;;;;;;;;6132241;23;20033;-87
2021/01/13 00:30:35;;;;;;;12.15;1.23;;;;;;;;;;6127547;23;20104;-87
2021/01/13 00:33:08;;;;;;;16.98;1.52;;;;;;;;;;6123928;23;20035;-88
2021/01/13 00:35:45;;;;;;;21.15;1.50;;;;;;;;;;6161178;23;20025;-87
2021/01/13 00:38:12;;;;;;;;;;;;;;;;;;6161494;23;20418;-87
2021/01/13 00:40:38;;;;;;;14.20;1.65;;;;;;;;;;6159988;23;19916;-87
2021/01/13 00:43:09;;;;;;;6.82;1.05;;;;;;;;;;6163225;23;20028;-87
2021/01/13 00:45:38;;;;;;;5.53;0.98;;;;;;;;;;6162509;23;20052;-86
2021/01/13 00:48:13;;;;;;;8.57;1.20;;;;;;;;;;6164122;23;20331;-87
2021/01/13 00:50:42;;;;;;;7.60;1.52;;;;;;;;;;6160112;23;20031;-86
2021/01/13 00:53:15;;;;;;;8.65;1.35;;;;;;;;;;6225281;22;20325;-86
2021/01/13 00:55:43;;;;;;;10.88;1.58;;;;;;;;;;6276874;22;20085;-87
2021/01/13 00:58:12;;;;;;;7.57;2.13;;;;;;;;;;6280677;22;20031;-87
2021/01/13 01:00:39;;;;;;;7.28;1.17;;;;;;;;;;6280410;22;20034;-87
2021/01/13 01:03:10;;;;;;;12.73;1.75;;;;;;;;;;6253516;22;20019;-86
2021/01/13 01:05:48;;;;;;;7.85;1.48;;;;;;;;;;6251492;22;20405;-87
2021/01/13 01:08:34;;;;;;;;;;;;;;;;;;6216545;23;20020;-86
2021/01/13 01:11:24;;;;;;;;;;;;;;;;;;;;;
2021/01/13 01:14:15;;;;;;;13.57;2.08;;;;;;;;;;6193228;23;20016;-87
2021/01/13 01:23:40;;;;;;;;;;;;;;;;;;;;;
2021/01/13 02:12:26;;;;;;;18.30;1.73;;;;;;;;;;5929369;24;20096;-87
2021/01/13 02:15:33;;;;;;;9.50;1.08;;;;;;;;;;5894120;24;20028;-87
2021/01/13 02:18:26;;;;;;;4.60;0.98;;;;;;;;;;5999805;23;20032;-87
2021/01/13 02:21:01;;;;;;;9.40;1.55;;;;;;;;;;6010513;23;20038;-86
2021/01/13 02:23:36;;;;;;;8.30;1.13;;;;;;;;;;6042596;23;20076;-87
2021/01/13 02:26:57;;;;;;;12.45;1.30;;;;;;;;;;6111730;23;20479;-86
2021/01/13 02:29:47;;;;;;;8.65;1.35;;;;;;;;;;6078364;23;20026;-86
2021/01/13 02:32:17;;;;;;;13.50;1.38;;;;;;;;;;6129518;23;20396;-86
2021/01/13 02:34:52;;;;;;;6.47;1.25;;;;;;;;;;6105059;23;20081;-87
2021/01/13 02:37:38;;;;;;;12.60;1.30;;;;;;;;;;6129477;23;20112;-86
2021/01/13 02:40:12;;;;;;;7.47;1.20;;;;;;;;;;6104949;23;20025;-86
2021/01/13 02:42:46;;;;;;;6.07;1.27;;;;;;;;;;6122220;23;20017;-86
2021/01/13 02:45:17;;;;;;;8.52;1.33;;;;;;;;;;6146701;23;20030;-86
2021/01/13 02:48:06;;;;;;;12.23;1.20;;;;;;;;;;6112101;23;20033;-86
2021/01/13 02:50:37;;;;;;;9.77;1.05;;;;;;;;;;6236601;23;20035;-86
2021/01/13 02:53:09;;;;;;;14.23;1.20;;;;;;;;;;6223344;23;20031;-86
2021/01/13 02:55:37;;;;;;;9.35;1.02;;;;;;;;;;6249123;23;20102;-86
2021/01/13 02:58:08;;;;;;;9.55;2.13;;;;;;;;;;6249743;23;20173;-86
2021/01/13 03:00:35;;;;;;;8.02;1.20;;;;;;;;;;6224461;23;20028;-86
2021/01/13 03:03:02;;;;;;;11.10;1.30;;;;;;;;;;6249986;22;20106;-86
2021/01/13 03:05:29;;;;;;;12.60;2.30;;;;;;;;;;6222857;23;20172;-86
2021/01/13 03:07:56;;;;;;;15.48;1.40;;;;;;;;;;6249397;23;20032;-86
2021/01/13 03:10:28;;;;;;;12.07;1.48;;;;;;;;;;6223610;23;20028;-86
2021/01/13 03:13:00;;;;;;;14.45;1.50;;;;;;;;;;6223339;23;20032;-86
2021/01/13 03:15:31;;;;;;;7.50;1.30;;;;;;;;;;6222201;23;20111;-86
2021/01/13 03:18:00;;;;;;;6.28;1.00;;;;;;;;;;6248905;23;20398;-86
2021/01/13 03:20:30;;;;;;;17.20;1.95;;;;;;;;;;6222286;23;20038;-86
2021/01/13 03:23:15;;;;;;;3.92;1.25;;;;;;;;;;6248325;23;20047;-86
2021/01/13 03:26:01;;;;;;;12.75;1.38;;;;;;;;;;6223560;23;20024;-86
2021/01/13 03:28:32;;;;;;;14.63;1.88;;;;;;;;;;6265461;23;20012;-86
2021/01/13 03:30:59;;;;;;;9.90;1.15;;;;;;;;;;6242015;23;20016;-86
2021/01/13 03:33:27;;;;;;;11.38;1.67;;;;;;;;;;6242112;23;20024;-87
2021/01/13 03:35:57;;;;;;;7.03;1.10;;;;;;;;;;6240470;23;20028;-87
2021/01/13 03:38:27;;;;;;;12.07;1.70;;;;;;;;;;6227811;23;20031;-87
2021/01/13 03:40:58;;;;;;;6.00;1.27;;;;;;;;;;6224124;23;20035;-87
2021/01/13 03:43:24;;;;;;;12.02;1.05;;;;;;;;;;6222353;23;20039;-87
2021/01/13 03:45:53;;;;;;;9.95;1.40;;;;;;;;;;6248750;23;20028;-86
2021/01/13 03:48:38;;;;;;;7.47;1.58;;;;;;;;;;6222575;23;20052;-87
2021/01/13 03:51:25;;;;;;;6.28;1.55;;;;;;;;;;6224233;23;20276;-87
2021/01/13 03:53:51;;;;;;;8.80;1.42;;;;;;;;;;6222010;23;20047;-87
2021/01/13 03:56:24;;;;;;;5.63;1.13;;;;;;;;;;6221939;23;20035;-87
2021/01/13 03:58:53;;;;;;;8.13;0.85;;;;;;;;;;6248748;23;20024;-87
2021/01/13 04:01:23;;;;;;;6.82;0.80;;;;;;;;;;6220460;23;20131;-87
2021/01/13 04:04:11;;;;;;;1.88;0.60;;;;;;;;;;6277883;22;20094;-87
2021/01/13 04:06:44;;;;;;;3.50;0.70;;;;;;;;;;6282271;22;20028;-87
2021/01/13 04:09:14;;;;;;;1.52;0.50;;;;;;;;;;6253632;22;20167;-87
2021/01/13 04:11:43;;;;;;;6.25;0.68;;;;;;;;;;6253795;22;20027;-88
2021/01/13 04:14:16;;;;;;;4.00;0.57;;;;;;;;;;6253476;22;20074;-87
2021/01/13 04:16:44;;;;;;;7.65;1.00;;;;;;;;;;6255331;22;20033;-88
2021/01/13 04:19:10;;;;;;;8.10;1.17;;;;;;;;;;6256737;22;20405;-87
2021/01/13 04:21:36;;;;;;;10.02;1.20;;;;;;;;;;6257304;22;20031;-87
2021/01/13 04:24:03;;;;;;;6.82;0.90;;;;;;;;;;6283992;22;20023;-87
2021/01/13 04:26:29;;;;;;;3.22;0.77;;;;;;;;;;6290332;22;20134;-86
2021/01/13 04:28:55;;;;;;;12.35;1.30;;;;;;;;;;6272565;22;20205;-87
2021/01/13 04:31:23;;;;;;;5.95;1.02;;;;;;;;;;6298818;22;20188;-88
2021/01/13 04:33:50;;;;;;;8.07;1.13;;;;;;;;;;6272882;22;20165;-87
2021/01/13 04:36:17;;;;;;;3.55;0.90;;;;;;;;;;6292246;22;20023;-88
2021/01/13 04:38:49;;;;;;;4.80;1.08;;;;;;;;;;6281876;22;20030;-87
2021/01/13 04:41:17;;;;;;;9.32;1.48;;;;;;;;;;6255066;22;20071;-87
2021/01/13 04:43:54;;;;;;;4.18;1.10;;;;;;;;;;6253847;22;20020;-88
2021/01/13 04:46:21;;;;;;;8.23;1.30;;;;;;;;;;6257853;22;20034;-87
2021/01/13 04:48:53;;;;;;;4.88;0.80;;;;;;;;;;6254869;22;20085;-87
2021/01/13 04:51:24;;;;;;;6.60;1.17;;;;;;;;;;6255717;22;20325;-87
2021/01/13 04:53:51;;;;;;;4.72;1.00;;;;;;;;;;6253319;22;20613;-87
2021/01/13 04:56:18;;;;;;;7.75;1.05;;;;;;;;;;6254847;22;20361;-87
2021/01/13 04:59:05;;;;;;;8.07;1.05;;;;;;;;;;6254454;22;20038;-87
2021/01/13 05:01:31;;;;;;;;;;;;;;;;;;6278791;22;20379;-87
2021/01/13 05:04:07;;;;;;;6.57;0.80;;;;;;;;;;6252401;22;19923;-86
2021/01/13 05:06:48;;;;;;;6.45;0.98;;;;;;;;;;6252051;22;20212;-87
2021/01/13 05:09:14;;;;;;;6.57;1.00;;;;;;;;;;6279793;22;20027;-86
2021/01/13 05:11:50;;;;;;;13.95;0.90;;;;;;;;;;6279386;22;20034;-87
2021/01/13 05:14:21;;;;;;;7.32;0.90;;;;;;;;;;6281442;22;20019;-87
2021/01/13 05:16:58;;;;;;;6.65;1.27;;;;;;;;;;6255493;22;20047;-88
2021/01/13 05:19:24;;;;;;;80.57;5.53;;;;;;;;;;6256147;22;20024;-87
2021/01/13 05:21:55;;;;;;;8.45;0.95;;;;;;;;;;6252871;22;20020;-88
2021/01/13 05:24:57;;;;;;;2.97;0.70;;;;;;;;;;6280570;22;20046;-88
2021/01/13 05:27:32;;;;;;;13.52;1.23;;;;;;;;;;6285068;22;20071;-87
2021/01/13 05:30:16;;;;;;;17.45;1.60;;;;;;;;;;6273347;22;20035;-87
2021/01/13 05:33:42;;;;;;;13.50;1.60;;;;;;;;;;6154336;23;20022;-87
2021/01/13 05:43:56;;;;;;;10.52;1.30;;;;;;;;;;6197393;23;20021;-87
2021/01/13 06:08:00;;;;;;;6.25;0.90;;;;;;;;;;5931046;24;20023;-88
2021/01/13 06:11:42;;;;;;;8.57;2.25;;;;;;;;;;5887179;24;20148;-88
2021/01/13 06:33:29;;;;;;;5.97;1.73;;;;;;;;;;6064809;23;20291;-87
2021/01/13 06:43:25;;;;;;;7.15;1.60;;;;;;;;;;6037021;23;20107;-87
2021/01/13 06:50:08;;;;;;;;;;;;;;;;;;;;;
2021/01/13 07:07:44;;;;;;;8.00;2.03;;;;;;;;;;5094139;22;27657302;-89
2021/01/13 07:10:54;;;;;;;;;;;;;;;;;;;;;
2021/01/13 07:17:28;;;;;;;9.98;1.70;;;;;;;;;;6135890;23;20056;-89
2021/01/13 07:20:01;;;;;;;14.10;2.00;;;;;;;;;;6140767;23;20037;-89
2021/01/13 07:22:28;;;;;;;12.23;1.40;;;;;;;;;;6138115;23;20021;-90
2021/01/13 07:24:58;;;;;;;10.80;1.73;;;;;;;;;;6144181;23;20304;-89
2021/01/13 07:27:43;;;;;;;8.90;1.33;;;;;;;;;;6165061;23;20326;-90
2021/01/13 07:30:18;;;;;;;4.30;1.63;;;;;;;;;;6167094;23;20043;-89
2021/01/13 07:33:00;;;;;;;3.92;1.13;;;;;;;;;;6141043;23;20056;-89
2021/01/13 07:35:43;;;;;;;5.07;1.40;;;;;;;;;;6165316;23;20306;-89
2021/01/13 07:38:18;;;;;;;7.45;1.75;;;;;;;;;;6140118;23;20073;-90
2021/01/13 07:41:17;;;;;;;8.40;1.98;;;;;;;;;;6143643;23;20021;-89
2021/01/13 07:44:02;;;;;;;11.57;1.77;;;;;;;;;;6164517;23;20026;-90
2021/01/13 07:46:34;;;;;;;8.38;1.67;;;;;;;;;;6164523;23;20041;-90
2021/01/13 07:49:09;;;;;;;;;;;;;;;;;;6171285;23;20106;-90
2021/01/13 07:51:45;;;;;;;8.30;1.52;;;;;;;;;;6267538;22;19929;-90
2021/01/13 07:54:26;;;;;;;8.13;1.40;;;;;;;;;;6263977;22;20130;-89
2021/01/13 07:56:55;;;;;;;9.82;1.55;;;;;;;;;;6259910;22;20024;-89
2021/01/13 07:59:31;;;;;;;8.65;1.42;;;;;;;;;;6261083;22;20168;-90
2021/01/13 08:02:12;;;;;;;12.00;1.52;;;;;;;;;;6264412;22;20099;-90
2021/01/13 08:05:01;;;;;;;6.68;1.23;;;;;;;;;;6295916;22;20046;-89
2021/01/13 08:07:42;;;;;;;7.82;1.17;;;;;;;;;;6260252;22;20326;-89
2021/01/13 08:10:29;;;;;;;6.18;1.45;;;;;;;;;;6285916;22;20223;-90
2021/01/13 08:13:15;;;;;;;7.50;0.98;;;;;;;;;;6284338;22;20037;-89
2021/01/13 08:16:09;;;;;;;4.57;1.15;;;;;;;;;;6257856;22;20019;-89
2021/01/13 08:18:53;;;;;;;7.53;1.17;;;;;;;;;;6283321;22;20023;-89
2021/01/13 08:21:30;;;;;;;8.63;1.20;;;;;;;;;;6257471;22;20046;-89
2021/01/13 08:26:33;;;;;;;4.65;0.77;;;;;;;;;;6284833;22;20024;-89
2021/01/13 08:29:05;;;;;;;4.22;0.80;;;;;;;;;;6261638;22;20023;-89
2021/01/13 08:31:31;;;;;;;6.25;1.23;;;;;;;;;;6270090;22;20061;-90
2021/01/13 08:34:03;;;;;;;3.75;1.02;;;;;;;;;;6296628;22;20008;-90
2021/01/13 08:36:33;;;;;;;5.90;1.05;;;;;;;;;;6265862;22;20027;-90
2021/01/13 08:39:04;;;;;;;7.65;1.55;;;;;;;;;;6286449;22;20024;-88
2021/01/13 08:41:34;;;;;;;11.73;1.73;;;;;;;;;;6260482;22;20008;-90
2021/01/13 08:44:12;;;;;;;8.20;1.20;;;;;;;;;;6257782;22;20024;-86
2021/01/13 08:46:44;;;;;;;8.85;1.83;;;;;;;;;;6252709;22;20038;-85
2021/01/13 08:49:18;;;;;;;12.95;1.55;;;;;;;;;;6255410;22;20023;-86
2021/01/13 08:52:11;;;;;;;14.40;1.60;;;;;;;;;;6256845;22;20023;-86
2021/01/13 08:54:44;;;;;;;9.77;1.48;;;;;;;;;;6275036;22;20031;-87
2021/01/13 08:57:12;;;;;;;10.60;1.90;;;;;;;;;;6250106;22;20027;-87
2021/01/13 08:59:46;;;;;;;8.38;1.55;;;;;;;;;;6253646;22;20019;-86
2021/01/13 09:02:14;;;;;;;14.10;1.92;;;;;;;;;;6296232;22;20020;-87
2021/01/13 09:05:00;;;;;;;15.77;2.78;;;;;;;;;;6269511;22;20031;-87
2021/01/13 09:07:29;;;;;;;6.95;1.17;;;;;;;;;;6268798;22;20187;-87
2021/01/13 09:10:13;;;;;;;13.27;1.73;;;;;;;;;;6259114;22;20054;-86
2021/01/13 09:12:40;;;;;;;9.60;1.42;;;;;;;;;;6283623;22;20053;-86
2021/01/13 09:15:07;;;;;;;6.60;1.60;;;;;;;;;;6294387;22;20030;-86
2021/01/13 09:17:40;;;;;;;14.48;1.98;;;;;;;;;;6270246;22;20012;-86
2021/01/13 09:20:07;;;;;;;12.80;1.95;;;;;;;;;;6270618;22;20034;-86
2021/01/13 09:22:42;;;;;;;8.60;1.40;;;;;;;;;;6296442;22;20027;-86
2021/01/13 09:25:21;;;;;;;11.30;2.08;;;;;;;;;;6270104;22;20028;-86
2021/01/13 09:27:48;;;;;;;8.30;1.92;;;;;;;;;;6286898;22;20024;-87
2021/01/13 09:30:34;;;;;;;11.55;3.30;;;;;;;;;;6258419;22;20511;-87
2021/01/13 09:33:01;;;;;;;;;;;;;;;;;;6252011;22;20107;-86
2021/01/13 09:35:28;;;;;;;12.90;2.10;;;;;;;;;;6250563;22;19963;-87
2021/01/13 09:37:59;;;;;;;15.00;2.05;;;;;;;;;;6277196;22;20081;-87
2021/01/13 09:40:47;;;;;;;9.15;1.52;;;;;;;;;;6251706;22;20075;-88
2021/01/13 09:43:25;;;;;;;13.98;1.90;;;;;;;;;;6251579;22;20235;-87
2021/01/13 09:45:53;;;;;;;15.10;2.65;;;;;;;;;;6250195;22;20397;-87
2021/01/13 09:48:22;;;;;;;15.27;1.67;;;;;;;;;;6276885;22;20024;-86
2021/01/13 09:51:02;;;;;;;9.35;1.55;;;;;;;;;;6251695;22;20077;-87
2021/01/13 09:53:30;;;;;;;19.30;2.60;;;;;;;;;;6278157;22;20058;-87
2021/01/13 09:56:05;;;;;;;10.02;1.88;;;;;;;;;;6252135;22;20031;-86
2021/01/13 09:58:37;;;;;;;9.23;1.45;;;;;;;;;;6249806;22;20305;-86
2021/01/13 10:01:13;;;;;;;9.60;1.88;;;;;;;;;;6252135;22;20086;-86
2021/01/13 10:03:42;;;;;;;11.95;1.05;;;;;;;;;;6252433;22;20290;-86
2021/01/13 10:06:12;;;;;;;7.40;1.27;;;;;;;;;;6250010;22;20166;-86
2021/01/13 10:08:59;;;;;;;10.23;1.27;;;;;;;;;;6251706;22;20107;-86
2021/01/13 10:11:26;;;;;;;6.40;1.27;;;;;;;;;;6273845;22;20401;-84
2021/01/13 10:14:00;;;;;;;11.68;2.67;;;;;;;;;;6249009;22;20073;-84
2021/01/13 10:16:30;;;;;;;7.60;1.40;;;;;;;;;;6247343;22;20019;-86
2021/01/13 10:19:03;;;;;;;10.13;1.25;;;;;;;;;;6249700;22;20294;-86
2021/01/13 10:21:40;;;;;;;6.75;1.55;;;;;;;;;;6278271;22;20440;-86
2021/01/13 10:24:07;;;;;;;12.07;1.90;;;;;;;;;;6255463;22;20024;-86
2021/01/13 10:26:44;;;;;;;11.13;2.10;;;;;;;;;;6247573;22;20140;-86
2021/01/13 10:29:15;;;;;;;13.98;2.00;;;;;;;;;;6247466;22;20027;-86
2021/01/13 10:31:41;;;;;;;6.38;1.35;;;;;;;;;;6252165;22;20024;-86
2021/01/13 10:34:12;;;;;;;12.75;1.98;;;;;;;;;;6248086;22;20364;-85
2021/01/13 10:36:41;;;;;;;17.15;2.35;;;;;;;;;;6274678;22;20024;-86
2021/01/13 10:39:18;;;;;;;18.80;2.55;;;;;;;;;;6249256;22;20123;-86
2021/01/13 10:41:57;;;;;;;14.40;1.90;;;;;;;;;;6278533;22;20024;-86
2021/01/13 10:44:30;;;;;;;14.32;1.77;;;;;;;;;;6249973;22;20223;-86
2021/01/13 10:47:13;;;;;;;9.55;1.95;;;;;;;;;;6251428;22;20081;-86
2021/01/13 10:49:42;;;;;;;5.30;1.30;;;;;;;;;;6251425;22;20031;-86
2021/01/13 10:52:12;;;;;;;9.93;1.65;;;;;;;;;;6250645;22;20178;-84
2021/01/13 10:54:43;;;;;;;14.98;1.88;;;;;;;;;;6260491;22;20153;-84
2021/01/13 10:57:10;;;;;;;13.57;1.85;;;;;;;;;;6289693;22;20223;-84
2021/01/13 10:59:37;;;;;;;11.75;2.33;;;;;;;;;;6263421;22;20079;-85
2021/01/13 11:02:14;;;;;;;11.23;1.75;;;;;;;;;;6262771;22;20079;-84
2021/01/13 11:04:45;;;;;;;13.10;1.67;;;;;;;;;;6248762;22;20020;-84
2021/01/13 11:07:16;;;;;;;13.77;2.05;;;;;;;;;;6273944;22;20160;-84
2021/01/13 11:09:46;;;;;;;11.50;1.92;;;;;;;;;;6276978;22;20024;-84
2021/01/13 11:12:20;;;;;;;9.48;1.40;;;;;;;;;;6278271;22;20065;-85
2021/01/13 11:14:51;;;;;;;15.20;2.08;;;;;;;;;;6252798;22;20024;-85
2021/01/13 11:17:26;;;;;;;10.48;1.75;;;;;;;;;;6248720;22;20024;-85
2021/01/13 11:19:52;;;;;;;12.80;1.65;;;;;;;;;;6250407;22;20076;-86
2021/01/13 11:22:20;;;;;;;12.55;1.80;;;;;;;;;;6260730;22;20020;-86
2021/01/13 11:24:53;;;;;;;12.75;2.13;;;;;;;;;;6265527;22;20027;-86
2021/01/13 11:27:22;;;;;;;14.75;1.48;;;;;;;;;;6252966;22;20024;-85
2021/01/13 11:29:53;;;;;;;11.77;1.25;;;;;;;;;;6274317;22;20066;-85
2021/01/13 11:32:21;;;;;;;8.70;1.80;;;;;;;;;;6248300;22;20054;-85
2021/01/13 11:35:10;;;;;;;10.35;2.30;;;;;;;;;;6255724;22;20024;-90
2021/01/13 11:37:47;;;;;;;8.15;1.45;;;;;;;;;;6273055;22;20078;-89
2021/01/13 11:40:30;;;;;;;12.57;1.75;;;;;;;;;;6268036;22;20484;-89
2021/01/13 11:43:19;;;;;;;12.73;1.60;;;;;;;;;;6272296;22;20031;-88
2021/01/13 11:45:57;;;;;;;12.95;2.35;;;;;;;;;;6244059;22;20035;-87
2021/01/13 11:48:27;;;;;;;16.13;1.98;;;;;;;;;;6243965;22;20020;-87
2021/01/13 11:51:03;;;;;;;15.95;1.65;;;;;;;;;;6241323;22;20192;-87
2021/01/13 11:53:33;;;;;;;13.75;1.70;;;;;;;;;;6272636;22;20359;-87
2021/01/13 11:56:03;;;;;;;13.98;1.80;;;;;;;;;;6245682;22;20042;-88
2021/01/13 11:58:32;;;;;;;7.90;1.63;;;;;;;;;;6269319;22;20034;-88
2021/01/13 12:00:59;;;;;;;10.65;1.67;;;;;;;;;;6244041;22;20056;-87
2021/01/13 12:03:25;;;;;;;12.23;2.40;;;;;;;;;;6272028;22;20098;-88
2021/01/13 12:05:51;;;;;;;9.65;1.50;;;;;;;;;;6245839;22;20031;-87
2021/01/13 12:08:28;;;;;;;11.32;1.92;;;;;;;;;;6247394;22;20610;-87
2021/01/13 12:11:09;;;;;;;10.60;2.30;;;;;;;;;;6250742;22;20035;-88
2021/01/13 12:13:42;;;;;;;15.75;2.60;;;;;;;;;;6251849;22;20054;-88
2021/01/13 12:16:13;;;;;;;11.18;2.00;;;;;;;;;;6251966;22;20084;-88
2021/01/13 12:18:43;;;;;;;12.77;2.17;;;;;;;;;;6275100;22;20197;-88
2021/01/13 12:21:13;;;;;;;11.63;1.80;;;;;;;;;;6272544;22;20275;-88
2021/01/13 12:23:47;;;;;;;9.45;1.52;;;;;;;;;;6276610;22;20513;-89
2021/01/13 12:26:28;;;;;;;6.47;1.50;;;;;;;;;;6272188;22;20133;-89
2021/01/13 12:29:07;;;;;;;9.30;2.08;;;;;;;;;;6247864;22;20027;-88
2021/01/13 12:31:42;;;;;;;14.43;1.80;;;;;;;;;;6255624;22;20004;-87
2021/01/13 12:34:17;;;;;;;8.48;1.75;;;;;;;;;;6283905;22;20031;-88
2021/01/13 12:36:48;;;;;;;9.90;1.85;;;;;;;;;;6268518;22;20639;-87
2021/01/13 12:39:36;;;;;;;18.80;3.88;;;;;;;;;;6272535;22;20011;-89
2021/01/13 12:42:03;;;;;;;8.98;1.83;;;;;;;;;;6264194;22;20426;-85
2021/01/13 12:44:29;;;;;;;12.18;1.90;;;;;;;;;;6276221;22;20028;-87
2021/01/13 12:46:56;;;;;;;11.43;1.63;;;;;;;;;;6259084;22;20053;-88
2021/01/13 12:49:24;;;;;;;12.57;1.65;;;;;;;;;;6266493;22;20024;-88
2021/01/13 12:51:51;;;;;;;11.20;1.45;;;;;;;;;;6266764;22;20028;-87
2021/01/13 12:54:17;;;;;;;5.15;1.90;;;;;;;;;;6278594;22;20028;-87
2021/01/13 12:56:43;;;;;;;12.15;1.95;;;;;;;;;;6249654;22;20398;-87
2021/01/13 12:59:15;;;;;;;10.40;2.35;;;;;;;;;;6277735;22;20040;-87
2021/01/13 13:01:42;;;;;;;13.65;1.65;;;;;;;;;;6274699;22;20033;-87
2021/01/13 13:04:09;;;;;;;11.60;1.75;;;;;;;;;;6251044;22;20023;-87
2021/01/13 13:06:36;;;;;;;13.32;2.42;;;;;;;;;;6246366;22;20367;-88
2021/01/13 13:09:04;;;;;;;16.33;2.22;;;;;;;;;;6250727;22;20027;-91
2021/01/13 13:11:31;;;;;;;11.50;2.15;;;;;;;;;;6265508;22;20012;-90
2021/01/13 13:14:05;;;;;;;21.35;2.70;;;;;;;;;;6266353;22;20049;-89
2021/01/13 13:21:14;;;;;;;;;;;;;;;;;;;;;
2021/01/13 13:23:53;;;;;;;16.40;2.05;;;;;;;;;;6066299;23;20018;-90
2021/01/13 13:26:22;;;;;;;12.57;1.80;;;;;;;;;;6042018;23;20034;-89
2021/01/13 13:28:48;;;;;;;7.63;1.42;;;;;;;;;;6087521;23;20066;-89
2021/01/13 13:31:19;;;;;;;6.68;1.58;;;;;;;;;;6228028;22;20031;-88
2021/01/13 13:33:46;;;;;;;16.20;3.13;;;;;;;;;;6280495;22;20059;-89
2021/01/13 13:36:13;;;;;;;12.13;2.53;;;;;;;;;;6252465;22;20031;-87
2021/01/13 13:38:43;;;;;;;14.60;2.75;;;;;;;;;;6284579;22;20020;-86
2021/01/13 13:41:10;;;;;;;13.30;1.58;;;;;;;;;;6257664;22;20045;-87
2021/01/13 13:43:36;;;;;;;12.38;1.38;;;;;;;;;;6283512;22;20023;-87
2021/01/13 13:46:04;;;;;;;14.80;2.45;;;;;;;;;;6280279;22;20212;-86
2021/01/13 13:48:30;;;;;;;18.05;2.40;;;;;;;;;;6281337;22;20187;-87
2021/01/13 13:50:58;;;;;;;11.63;1.80;;;;;;;;;;6250995;22;20023;-87
2021/01/13 13:53:25;;;;;;;22.95;2.63;;;;;;;;;;6273919;22;20044;-87
2021/01/13 13:55:51;;;;;;;20.85;2.83;;;;;;;;;;6245069;22;20336;-87
2021/01/13 13:58:19;;;;;;;12.90;1.52;;;;;;;;;;6244349;22;20118;-87
2021/01/13 14:00:51;;;;;;;12.88;2.17;;;;;;;;;;6246687;22;20047;-86
2021/01/13 14:03:19;;;;;;;18.95;2.30;;;;;;;;;;6274168;22;20121;-88
2021/01/13 14:05:45;;;;;;;13.77;2.10;;;;;;;;;;6273785;22;20191;-88
2021/01/13 14:08:11;;;;;;;15.43;1.95;;;;;;;;;;6274074;22;20028;-88
2021/01/13 14:10:42;;;;;;;13.43;1.75;;;;;;;;;;6248761;22;20038;-88
2021/01/13 14:13:08;;;;;;;15.63;2.55;;;;;;;;;;6257481;22;20018;-87
2021/01/13 14:15:34;;;;;;;15.25;2.15;;;;;;;;;;6267590;22;20016;-88
2021/01/13 14:18:04;;;;;;;15.18;2.08;;;;;;;;;;6255398;22;20067;-88
2021/01/13 14:20:31;;;;;;;19.27;2.13;;;;;;;;;;6246881;22;20401;-88
2021/01/13 14:22:57;;;;;;;13.63;2.13;;;;;;;;;;6272463;22;20444;-88
2021/01/13 14:25:24;;;;;;;11.23;1.80;;;;;;;;;;6248964;22;20031;-87
2021/01/13 14:27:53;;;;;;;21.77;2.33;;;;;;;;;;6272894;22;20077;-87
2021/01/13 14:30:19;;;;;;;19.02;3.22;;;;;;;;;;6246779;22;20029;-89
2021/01/13 14:32:49;;;;;;;13.38;2.17;;;;;;;;;;6252832;22;20023;-88
2021/01/13 14:35:26;;;;;;;24.63;2.67;;;;;;;;;;6253977;22;20195;-88
2021/01/13 14:37:53;;;;;;;21.23;3.13;;;;;;;;;;6276591;22;20381;-89
2021/01/13 14:40:25;;;;;;;19.48;2.20;;;;;;;;;;6279927;22;20019;-89
2021/01/13 14:42:55;;;;;;;16.98;2.20;;;;;;;;;;6254996;22;20020;-89
2021/01/13 14:45:26;;;;;;;14.88;2.85;;;;;;;;;;6275875;22;20038;-89
2021/01/13 14:47:56;;;;;;;17.42;2.90;;;;;;;;;;6251219;22;20050;-88
2021/01/13 14:50:22;;;;;;;20.83;4.63;;;;;;;;;;6250767;22;20046;-87
2021/01/13 14:52:53;;;;;;;18.63;2.63;;;;;;;;;;6249251;22;20441;-87
2021/01/13 14:55:21;;;;;;;18.50;2.65;;;;;;;;;;6278641;22;20095;-87
2021/01/13 14:57:50;;;;;;;12.35;2.05;;;;;;;;;;6257898;22;20079;-86
2021/01/13 15:00:19;;;;;;;11.93;2.33;;;;;;;;;;6290295;22;20035;-87
2021/01/13 15:02:59;;;;;;;14.82;2.35;;;;;;;;;;6268226;22;20030;-87
2021/01/13 15:05:29;;;;;;;16.80;2.00;;;;;;;;;;6266178;22;20027;-87
2021/01/13 15:07:57;;;;;;;8.57;1.15;;;;;;;;;;6267967;22;20068;-87
2021/01/13 15:10:25;;;;;;;11.93;1.60;;;;;;;;;;6293037;22;20012;-88
2021/01/13 15:13:06;;;;;;;8.05;1.40;;;;;;;;;;6262641;22;20050;-88
2021/01/13 15:15:52;;;;;;;9.07;1.42;;;;;;;;;;6262615;22;20023;-87
2021/01/13 15:18:22;;;;;;;14.07;1.73;;;;;;;;;;6296835;22;20027;-88
2021/01/13 15:20:51;;;;;;;11.02;1.75;;;;;;;;;;6264663;22;20445;-87
2021/01/13 15:23:17;;;;;;;9.52;1.38;;;;;;;;;;6260888;22;20095;-87
2021/01/13 15:25:44;;;;;;;6.25;1.55;;;;;;;;;;6256451;22;20023;-88
2021/01/13 15:28:13;;;;;;;11.15;2.35;;;;;;;;;;6281980;22;20081;-88
2021/01/13 15:30:40;;;;;;;11.75;2.33;;;;;;;;;;6255942;22;20463;-89
2021/01/13 15:33:14;;;;;;;13.77;1.77;;;;;;;;;;6256546;22;20024;-88
2021/01/13 15:35:52;;;;;;;9.93;2.28;;;;;;;;;;6257929;22;20042;-89
2021/01/13 15:38:22;;;;;;;16.30;2.35;;;;;;;;;;6282937;22;20045;-87
2021/01/13 15:40:51;;;;;;;15.25;2.42;;;;;;;;;;6256335;22;20024;-87
2021/01/13 15:43:22;;;;;;;13.27;1.83;;;;;;;;;;6246742;22;20012;-89
2021/01/13 15:45:57;;;;;;;11.63;1.83;;;;;;;;;;6256767;22;20024;-88
2021/01/13 15:48:30;;;;;;;20.73;2.92;;;;;;;;;;6265623;22;20073;-90
2021/01/13 15:51:01;;;;;;;16.67;2.42;;;;;;;;;;6282781;22;20023;-89
2021/01/13 15:53:30;;;;;;;12.85;2.20;;;;;;;;;;6279953;22;20027;-89
2021/01/13 15:57:03;;;;;;;;;;;;;;;;;;;;;
2021/01/13 15:59:53;;;;;;;11.88;1.83;;;;;;;;;;6282770;22;20020;-90
2021/01/13 16:03:14;;;;;;;17.58;2.38;;;;;;;;;;6282931;22;20243;-90
2021/01/13 16:06:17;;;;;;;12.73;1.83;;;;;;;;;;6156928;23;20080;-89
2021/01/13 16:08:51;;;;;;;14.30;1.92;;;;;;;;;;6135417;23;20080;-89
2021/01/13 16:11:34;;;;;;;;;;;;;;;;;;6291159;22;20004;-89
2021/01/13 16:14:23;;;;;;;20.98;3.35;;;;;;;;;;6288346;22;19929;-89
2021/01/13 16:17:10;;;;;;;15.02;2.38;;;;;;;;;;6280696;22;20101;-89
2021/01/13 16:20:16;;;;;;;20.05;2.47;;;;;;;;;;6279956;22;20249;-90
2021/01/13 16:23:49;;;;;;;17.45;2.58;;;;;;;;;;6289205;22;20046;-90
2021/01/13 16:26:38;;;;;;;;;;;;;;;;;;;;;
2021/01/13 16:30:14;;;;;;;20.17;2.88;;;;;;;;;;6282580;22;20066;-90
2021/01/13 16:33:19;;;;;;;19.23;2.50;;;;;;;;;;6275279;22;20042;-89
2021/01/13 16:36:28;;;;;;;;;;;;;;;;;;;;;
2021/01/13 16:39:16;;;;;;;16.88;2.53;;;;;;;;;;6276711;22;20051;-90
2021/01/13 16:42:23;;;;;;;23.15;2.35;;;;;;;;;;6275570;22;20031;-91
2021/01/13 16:45:13;;;;;;;26.38;5.50;;;;;;;;;;6257313;22;20022;-90
2021/01/13 16:48:08;;;;;;;28.60;5.63;;;;;;;;;;6278395;22;20030;-90
2021/01/13 16:50:38;;;;;;;23.88;2.90;;;;;;;;;;6273667;22;20457;-91
2021/01/13 16:53:07;;;;;;;16.80;2.88;;;;;;;;;;6282175;22;20073;-91
2021/01/13 16:55:53;;;;;;;22.23;3.65;;;;;;;;;;6283599;22;20068;-91
2021/01/13 16:58:25;;;;;;;23.30;4.38;;;;;;;;;;6288311;22;20172;-90
2021/01/13 17:00:53;;;;;;;23.17;4.13;;;;;;;;;;6285121;22;20252;-90
2021/01/13 17:03:22;;;;;;;24.77;5.07;;;;;;;;;;6287581;22;20020;-91
2021/01/13 17:05:57;;;;;;;28.15;4.68;;;;;;;;;;6289854;22;20151;-90
2021/01/13 17:08:42;;;;;;;29.13;5.50;;;;;;;;;;6294763;22;20151;-90
2021/01/13 17:11:09;;;;;;;32.75;3.95;;;;;;;;;;6293602;22;20046;-92
2021/01/13 17:13:40;;;;;;;14.48;2.42;;;;;;;;;;6283226;22;20075;-90
2021/01/13 17:16:10;;;;;;;16.20;2.35;;;;;;;;;;6284383;22;20024;-90
2021/01/13 17:18:41;;;;;;;19.10;2.53;;;;;;;;;;6286677;22;20024;-90
2021/01/13 17:21:07;;;;;;;15.77;2.42;;;;;;;;;;6285954;22;20027;-90
2021/01/13 17:23:49;;;;;;;11.43;2.38;;;;;;;;;;6285346;22;20019;-90
2021/01/13 17:26:20;;;;;;;10.00;2.20;;;;;;;;;;6286390;22;20030;-89
2021/01/13 17:28:46;;;;;;;11.18;2.15;;;;;;;;;;6285272;22;20077;-89
2021/01/13 17:31:13;;;;;;;5.80;1.25;;;;;;;;;;6284332;22;20047;-89
2021/01/13 17:33:39;;;;;;;15.88;2.78;;;;;;;;;;6279272;22;20340;-90
2021/01/13 17:36:05;;;;;;;9.75;1.75;;;;;;;;;;6280616;22;20039;-90
2021/01/13 17:38:38;;;;;;;14.90;1.85;;;;;;;;;;6282608;22;20059;-89
2021/01/13 17:41:22;;;;;;;11.93;1.95;;;;;;;;;;6284912;22;20019;-91
2021/01/13 17:43:50;;;;;;;14.40;2.00;;;;;;;;;;6284488;22;20024;-87
2021/01/13 17:46:37;;;;;;;12.73;2.13;;;;;;;;;;6279679;22;20027;-87
2021/01/13 17:49:07;;;;;;;10.57;2.20;;;;;;;;;;6278811;22;20030;-87
2021/01/13 17:51:39;;;;;;;17.02;1.80;;;;;;;;;;6281055;22;20039;-87
2021/01/13 17:54:20;;;;;;;7.93;1.73;;;;;;;;;;6284560;22;20030;-87
2021/01/13 17:56:49;;;;;;;7.93;1.75;;;;;;;;;;6284298;22;20020;-87
2021/01/13 17:59:16;;;;;;;4.18;1.20;;;;;;;;;;6280364;22;20031;-87